sensor_id;sensor_type;location;lat;lon;timestamp;P1;durP1;ratioP1;P2;durP2;ratioP2
72127;SDS011;60000;51.030;7.024;2022-07-23T00:00:32;17.20;;;8.83;;
72127;SDS011;60000;51.030;7.024;2022-07-23T00:02:57;17.92;;;8.85;;
72127;SDS011;60000;51.030;7.024;2022-07-23T00:05:23;14.80;;;7.67;;
72127;SDS011;60000;51.030;7.024;2022-07-23T00:07:48;19.67;;;9.27;;
72127;SDS011;60000;51.030;7.024;2022-07-23T00:10:13;19.73;;;9.47;;
72127;SDS011;60000;51.030;7.024;2022-07-23T00:12:39;17.83;;;8.33;;
72127;SDS011;60000;51.030;7.024;2022-07-23T00:15:05;18.95;;;9.63;;
72127;SDS011;60000;51.030;7.024;2022-07-23T00:17:31;20.10;;;10.20;;
72127;SDS011;60000;51.030;7.024;2022-07-23T00:19:57;19.73;;;9.83;;
72127;SDS011;60000;51.030;7.024;2022-07-23T00:22:22;19.67;;;8.93;;
72127;SDS011;60000;51.030;7.024;2022-07-23T00:24:48;18.50;;;8.38;;
72127;SDS011;60000;51.030;7.024;2022-07-23T00:27:14;17.77;;;8.50;;
72127;SDS011;60000;51.030;7.024;2022-07-23T00:29:39;16.50;;;8.30;;
72127;SDS011;60000;51.030;7.024;2022-07-23T00:32:04;17.90;;;8.83;;
72127;SDS011;60000;51.030;7.024;2022-07-23T00:34:30;16.53;;;9.00;;
72127;SDS011;60000;51.030;7.024;2022-07-23T00:36:56;18.13;;;9.18;;
72127;SDS011;60000;51.030;7.024;2022-07-23T00:39:21;16.53;;;9.07;;
72127;SDS011;60000;51.030;7.024;2022-07-23T00:41:47;19.30;;;9.23;;
72127;SDS011;60000;51.030;7.024;2022-07-23T00:44:14;17.15;;;8.65;;
72127;SDS011;60000;51.030;7.024;2022-07-23T00:46:47;16.75;;;8.15;;
72127;SDS011;60000;51.030;7.024;2022-07-23T00:49:28;15.90;;;9.02;;
72127;SDS011;60000;51.030;7.024;2022-07-23T00:51:55;16.50;;;8.40;;
72127;SDS011;60000;51.030;7.024;2022-07-23T00:54:23;17.40;;;8.50;;
72127;SDS011;60000;51.030;7.024;2022-07-23T00:56:50;20.50;;;9.95;;
72127;SDS011;60000;51.030;7.024;2022-07-23T00:59:16;18.33;;;8.97;;
72127;SDS011;60000;51.030;7.024;2022-07-23T01:01:41;17.00;;;7.72;;
72127;SDS011;60000;51.030;7.024;2022-07-23T01:04:09;16.77;;;8.30;;
72127;SDS011;60000;51.030;7.024;2022-07-23T01:06:35;16.70;;;8.05;;
72127;SDS011;60000;51.030;7.024;2022-07-23T01:09:02;15.63;;;7.95;;
72127;SDS011;60000;51.030;7.024;2022-07-23T01:11:29;17.80;;;8.23;;
72127;SDS011;60000;51.030;7.024;2022-07-23T01:13:55;17.20;;;9.20;;
72127;SDS011;60000;51.030;7.024;2022-07-23T01:16:20;14.80;;;7.93;;
72127;SDS011;60000;51.030;7.024;2022-07-23T01:18:45;18.67;;;9.07;;
72127;SDS011;60000;51.030;7.024;2022-07-23T01:21:11;17.83;;;8.52;;
72127;SDS011;60000;51.030;7.024;2022-07-23T01:23:38;15.10;;;7.90;;
72127;SDS011;60000;51.030;7.024;2022-07-23T01:26:04;16.77;;;8.82;;
72127;SDS011;60000;51.030;7.024;2022-07-23T01:28:29;16.60;;;7.93;;
72127;SDS011;60000;51.030;7.024;2022-07-23T01:30:55;22.08;;;9.57;;
72127;SDS011;60000;51.030;7.024;2022-07-23T01:33:20;17.87;;;8.60;;
72127;SDS011;60000;51.030;7.024;2022-07-23T01:35:45;16.90;;;8.13;;
72127;SDS011;60000;51.030;7.024;2022-07-23T01:38:11;16.10;;;8.97;;
72127;SDS011;60000;51.030;7.024;2022-07-23T01:40:36;17.70;;;8.07;;
72127;SDS011;60000;51.030;7.024;2022-07-23T01:43:01;14.30;;;8.07;;
72127;SDS011;60000;51.030;7.024;2022-07-23T01:45:27;17.77;;;8.60;;
72127;SDS011;60000;51.030;7.024;2022-07-23T01:47:52;17.05;;;7.63;;
72127;SDS011;60000;51.030;7.024;2022-07-23T01:50:17;19.17;;;8.23;;
72127;SDS011;60000;51.030;7.024;2022-07-23T01:52:43;14.17;;;7.57;;
72127;SDS011;60000;51.030;7.024;2022-07-23T01:55:08;14.37;;;7.67;;
72127;SDS011;60000;51.030;7.024;2022-07-23T01:57:34;16.25;;;8.15;;
72127;SDS011;60000;51.030;7.024;2022-07-23T01:59:59;13.33;;;7.57;;
72127;SDS011;60000;51.030;7.024;2022-07-23T02:02:24;17.30;;;9.13;;
72127;SDS011;60000;51.030;7.024;2022-07-23T02:04:50;16.70;;;7.77;;
72127;SDS011;60000;51.030;7.024;2022-07-23T02:07:15;18.57;;;8.90;;
72127;SDS011;60000;51.030;7.024;2022-07-23T02:09:40;14.83;;;7.67;;
72127;SDS011;60000;51.030;7.024;2022-07-23T02:12:06;14.23;;;7.67;;
72127;SDS011;60000;51.030;7.024;2022-07-23T02:14:31;17.20;;;8.25;;
72127;SDS011;60000;51.030;7.024;2022-07-23T02:16:57;18.97;;;7.53;;
72127;SDS011;60000;51.030;7.024;2022-07-23T02:19:22;16.07;;;7.50;;
72127;SDS011;60000;51.030;7.024;2022-07-23T02:21:48;13.57;;;7.47;;
72127;SDS011;60000;51.030;7.024;2022-07-23T02:24:13;14.05;;;8.05;;
72127;SDS011;60000;51.030;7.024;2022-07-23T02:26:39;16.33;;;7.73;;
72127;SDS011;60000;51.030;7.024;2022-07-23T02:29:04;15.30;;;8.37;;
72127;SDS011;60000;51.030;7.024;2022-07-23T02:31:30;16.02;;;8.15;;
72127;SDS011;60000;51.030;7.024;2022-07-23T02:33:56;13.55;;;7.50;;
72127;SDS011;60000;51.030;7.024;2022-07-23T02:36:21;17.30;;;8.03;;
72127;SDS011;60000;51.030;7.024;2022-07-23T02:38:47;16.10;;;7.33;;
72127;SDS011;60000;51.030;7.024;2022-07-23T02:41:12;14.47;;;7.73;;
72127;SDS011;60000;51.030;7.024;2022-07-23T02:43:38;16.95;;;7.55;;
72127;SDS011;60000;51.030;7.024;2022-07-23T02:46:03;14.57;;;7.63;;
72127;SDS011;60000;51.030;7.024;2022-07-23T02:48:29;15.07;;;7.35;;
72127;SDS011;60000;51.030;7.024;2022-07-23T02:50:55;14.93;;;7.40;;
72127;SDS011;60000;51.030;7.024;2022-07-23T02:53:21;14.38;;;7.38;;
72127;SDS011;60000;51.030;7.024;2022-07-23T02:55:47;12.98;;;6.85;;
72127;SDS011;60000;51.030;7.024;2022-07-23T02:58:12;16.23;;;8.17;;
72127;SDS011;60000;51.030;7.024;2022-07-23T03:00:38;11.90;;;6.80;;
72127;SDS011;60000;51.030;7.024;2022-07-23T03:03:03;15.13;;;7.33;;
72127;SDS011;60000;51.030;7.024;2022-07-23T03:05:28;14.03;;;7.87;;
72127;SDS011;60000;51.030;7.024;2022-07-23T03:07:54;14.32;;;7.60;;
72127;SDS011;60000;51.030;7.024;2022-07-23T03:10:19;14.10;;;7.33;;
72127;SDS011;60000;51.030;7.024;2022-07-23T03:12:44;14.70;;;7.17;;
72127;SDS011;60000;51.030;7.024;2022-07-23T03:15:10;15.60;;;7.70;;
72127;SDS011;60000;51.030;7.024;2022-07-23T03:17:35;12.43;;;6.60;;
72127;SDS011;60000;51.030;7.024;2022-07-23T03:20:00;12.07;;;6.40;;
72127;SDS011;60000;51.030;7.024;2022-07-23T03:22:26;12.50;;;6.47;;
72127;SDS011;60000;51.030;7.024;2022-07-23T03:24:51;13.87;;;7.93;;
72127;SDS011;60000;51.030;7.024;2022-07-23T03:27:20;12.80;;;6.95;;
72127;SDS011;60000;51.030;7.024;2022-07-23T03:29:45;15.27;;;7.13;;
72127;SDS011;60000;51.030;7.024;2022-07-23T03:32:11;13.73;;;6.73;;
72127;SDS011;60000;51.030;7.024;2022-07-23T03:34:36;14.53;;;7.03;;
72127;SDS011;60000;51.030;7.024;2022-07-23T03:37:02;13.38;;;7.07;;
72127;SDS011;60000;51.030;7.024;2022-07-23T03:39:27;12.73;;;6.70;;
72127;SDS011;60000;51.030;7.024;2022-07-23T03:41:53;15.20;;;7.43;;
72127;SDS011;60000;51.030;7.024;2022-07-23T03:44:18;13.97;;;7.20;;
72127;SDS011;60000;51.030;7.024;2022-07-23T03:46:43;19.60;;;8.03;;
72127;SDS011;60000;51.030;7.024;2022-07-23T03:49:09;15.13;;;7.97;;
72127;SDS011;60000;51.030;7.024;2022-07-23T03:51:34;15.27;;;7.43;;
72127;SDS011;60000;51.030;7.024;2022-07-23T03:53:59;15.73;;;8.30;;
72127;SDS011;60000;51.030;7.024;2022-07-23T03:56:25;17.37;;;8.57;;
72127;SDS011;60000;51.030;7.024;2022-07-23T03:58:51;15.38;;;7.65;;
72127;SDS011;60000;51.030;7.024;2022-07-23T04:01:16;13.70;;;7.50;;
72127;SDS011;60000;51.030;7.024;2022-07-23T04:03:41;15.67;;;7.83;;
72127;SDS011;60000;51.030;7.024;2022-07-23T04:06:07;15.13;;;7.57;;
72127;SDS011;60000;51.030;7.024;2022-07-23T04:08:32;12.80;;;7.03;;
72127;SDS011;60000;51.030;7.024;2022-07-23T04:10:58;13.35;;;7.50;;
72127;SDS011;60000;51.030;7.024;2022-07-23T04:13:23;14.47;;;7.53;;
72127;SDS011;60000;51.030;7.024;2022-07-23T04:15:48;16.60;;;7.53;;
72127;SDS011;60000;51.030;7.024;2022-07-23T04:18:15;15.02;;;8.07;;
72127;SDS011;60000;51.030;7.024;2022-07-23T04:20:42;13.70;;;7.45;;
72127;SDS011;60000;51.030;7.024;2022-07-23T04:23:08;15.97;;;7.77;;
72127;SDS011;60000;51.030;7.024;2022-07-23T04:25:34;17.30;;;8.02;;
72127;SDS011;60000;51.030;7.024;2022-07-23T04:28:00;16.15;;;8.00;;
72127;SDS011;60000;51.030;7.024;2022-07-23T04:30:25;17.43;;;8.97;;
72127;SDS011;60000;51.030;7.024;2022-07-23T04:32:51;14.83;;;7.97;;
72127;SDS011;60000;51.030;7.024;2022-07-23T04:35:16;16.37;;;8.23;;
72127;SDS011;60000;51.030;7.024;2022-07-23T04:37:41;15.23;;;8.27;;
72127;SDS011;60000;51.030;7.024;2022-07-23T04:40:07;16.42;;;8.35;;
72127;SDS011;60000;51.030;7.024;2022-07-23T04:42:33;12.10;;;7.10;;
72127;SDS011;60000;51.030;7.024;2022-07-23T04:44:58;14.73;;;7.07;;
72127;SDS011;60000;51.030;7.024;2022-07-23T04:47:23;15.32;;;7.65;;
72127;SDS011;60000;51.030;7.024;2022-07-23T04:49:49;15.47;;;7.13;;
72127;SDS011;60000;51.030;7.024;2022-07-23T04:52:14;13.87;;;7.40;;
72127;SDS011;60000;51.030;7.024;2022-07-23T04:54:40;13.20;;;7.40;;
72127;SDS011;60000;51.030;7.024;2022-07-23T04:57:05;13.43;;;6.73;;
72127;SDS011;60000;51.030;7.024;2022-07-23T04:59:30;14.60;;;7.27;;
72127;SDS011;60000;51.030;7.024;2022-07-23T05:01:56;13.70;;;6.90;;
72127;SDS011;60000;51.030;7.024;2022-07-23T05:04:21;13.33;;;6.57;;
72127;SDS011;60000;51.030;7.024;2022-07-23T05:06:46;13.47;;;6.80;;
72127;SDS011;60000;51.030;7.024;2022-07-23T05:09:12;15.57;;;7.60;;
72127;SDS011;60000;51.030;7.024;2022-07-23T05:11:37;13.67;;;7.83;;
72127;SDS011;60000;51.030;7.024;2022-07-23T05:14:02;12.50;;;6.70;;
72127;SDS011;60000;51.030;7.024;2022-07-23T05:16:28;12.30;;;6.90;;
72127;SDS011;60000;51.030;7.024;2022-07-23T05:18:53;13.93;;;7.10;;
72127;SDS011;60000;51.030;7.024;2022-07-23T05:21:19;17.00;;;7.40;;
72127;SDS011;60000;51.030;7.024;2022-07-23T05:23:44;16.27;;;7.43;;
72127;SDS011;60000;51.030;7.024;2022-07-23T05:26:10;17.87;;;7.50;;
72127;SDS011;60000;51.030;7.024;2022-07-23T05:28:35;16.90;;;7.67;;
72127;SDS011;60000;51.030;7.024;2022-07-23T05:31:00;15.87;;;7.60;;
72127;SDS011;60000;51.030;7.024;2022-07-23T05:33:26;17.50;;;7.90;;
72127;SDS011;60000;51.030;7.024;2022-07-23T05:35:51;16.33;;;8.43;;
72127;SDS011;60000;51.030;7.024;2022-07-23T05:38:16;15.87;;;7.67;;
72127;SDS011;60000;51.030;7.024;2022-07-23T05:40:42;18.60;;;8.32;;
72127;SDS011;60000;51.030;7.024;2022-07-23T05:43:07;17.97;;;8.10;;
72127;SDS011;60000;51.030;7.024;2022-07-23T05:45:32;17.47;;;8.80;;
72127;SDS011;60000;51.030;7.024;2022-07-23T05:47:58;15.87;;;7.87;;
72127;SDS011;60000;51.030;7.024;2022-07-23T05:50:23;17.23;;;8.23;;
72127;SDS011;60000;51.030;7.024;2022-07-23T05:52:49;18.27;;;7.87;;
72127;SDS011;60000;51.030;7.024;2022-07-23T05:55:14;13.57;;;7.37;;
72127;SDS011;60000;51.030;7.024;2022-07-23T05:57:40;13.87;;;7.57;;
72127;SDS011;60000;51.030;7.024;2022-07-23T06:00:06;15.60;;;7.45;;
72127;SDS011;60000;51.030;7.024;2022-07-23T06:02:34;17.73;;;8.17;;
72127;SDS011;60000;51.030;7.024;2022-07-23T06:04:59;16.13;;;7.22;;
72127;SDS011;60000;51.030;7.024;2022-07-23T06:07:24;21.07;;;9.40;;
72127;SDS011;60000;51.030;7.024;2022-07-23T06:09:50;19.17;;;8.07;;
72127;SDS011;60000;51.030;7.024;2022-07-23T06:12:15;17.93;;;8.23;;
72127;SDS011;60000;51.030;7.024;2022-07-23T06:14:41;21.35;;;8.30;;
72127;SDS011;60000;51.030;7.024;2022-07-23T06:17:07;17.02;;;8.38;;
72127;SDS011;60000;51.030;7.024;2022-07-23T06:19:32;16.37;;;7.73;;
72127;SDS011;60000;51.030;7.024;2022-07-23T06:21:58;16.63;;;7.23;;
72127;SDS011;60000;51.030;7.024;2022-07-23T06:24:23;19.73;;;8.40;;
72127;SDS011;60000;51.030;7.024;2022-07-23T06:26:48;18.53;;;8.73;;
72127;SDS011;60000;51.030;7.024;2022-07-23T06:29:13;18.00;;;8.87;;
72127;SDS011;60000;51.030;7.024;2022-07-23T06:31:39;18.87;;;8.37;;
72127;SDS011;60000;51.030;7.024;2022-07-23T06:34:04;20.87;;;8.80;;
72127;SDS011;60000;51.030;7.024;2022-07-23T06:36:29;14.18;;;7.43;;
72127;SDS011;60000;51.030;7.024;2022-07-23T06:38:55;17.60;;;8.50;;
72127;SDS011;60000;51.030;7.024;2022-07-23T06:41:20;15.73;;;7.73;;
72127;SDS011;60000;51.030;7.024;2022-07-23T06:43:47;19.15;;;8.43;;
72127;SDS011;60000;51.030;7.024;2022-07-23T06:46:13;13.80;;;7.00;;
72127;SDS011;60000;51.030;7.024;2022-07-23T06:48:38;16.17;;;7.37;;
72127;SDS011;60000;51.030;7.024;2022-07-23T06:51:03;17.23;;;8.13;;
72127;SDS011;60000;51.030;7.024;2022-07-23T06:53:29;17.33;;;7.57;;
72127;SDS011;60000;51.030;7.024;2022-07-23T06:55:55;15.90;;;7.40;;
72127;SDS011;60000;51.030;7.024;2022-07-23T06:58:20;13.63;;;6.88;;
72127;SDS011;60000;51.030;7.024;2022-07-23T07:00:45;12.60;;;6.40;;
72127;SDS011;60000;51.030;7.024;2022-07-23T07:03:11;12.50;;;5.67;;
72127;SDS011;60000;51.030;7.024;2022-07-23T07:05:36;16.07;;;6.23;;
72127;SDS011;60000;51.030;7.024;2022-07-23T07:08:02;13.32;;;6.07;;
72127;SDS011;60000;51.030;7.024;2022-07-23T07:10:27;11.93;;;5.33;;
72127;SDS011;60000;51.030;7.024;2022-07-23T07:12:53;15.07;;;6.07;;
72127;SDS011;60000;51.030;7.024;2022-07-23T07:15:18;11.83;;;4.53;;
72127;SDS011;60000;51.030;7.024;2022-07-23T07:17:43;13.63;;;5.57;;
72127;SDS011;60000;51.030;7.024;2022-07-23T07:20:09;13.75;;;5.32;;
72127;SDS011;60000;51.030;7.024;2022-07-23T07:22:35;12.60;;;5.37;;
72127;SDS011;60000;51.030;7.024;2022-07-23T07:25:00;13.07;;;5.38;;
72127;SDS011;60000;51.030;7.024;2022-07-23T07:27:26;12.73;;;6.23;;
72127;SDS011;60000;51.030;7.024;2022-07-23T07:29:51;13.77;;;5.73;;
72127;SDS011;60000;51.030;7.024;2022-07-23T07:32:17;10.67;;;5.43;;
72127;SDS011;60000;51.030;7.024;2022-07-23T07:34:42;11.45;;;5.60;;
72127;SDS011;60000;51.030;7.024;2022-07-23T07:37:07;12.73;;;5.30;;
72127;SDS011;60000;51.030;7.024;2022-07-23T07:39:33;11.20;;;5.30;;
72127;SDS011;60000;51.030;7.024;2022-07-23T07:41:58;11.13;;;5.00;;
72127;SDS011;60000;51.030;7.024;2022-07-23T07:44:23;10.67;;;5.17;;
72127;SDS011;60000;51.030;7.024;2022-07-23T07:46:49;12.23;;;5.43;;
72127;SDS011;60000;51.030;7.024;2022-07-23T07:49:14;11.88;;;5.30;;
72127;SDS011;60000;51.030;7.024;2022-07-23T07:51:42;12.90;;;5.77;;
72127;SDS011;60000;51.030;7.024;2022-07-23T07:54:07;14.38;;;6.13;;
72127;SDS011;60000;51.030;7.024;2022-07-23T07:56:32;13.43;;;5.77;;
72127;SDS011;60000;51.030;7.024;2022-07-23T07:58:58;10.00;;;5.40;;
72127;SDS011;60000;51.030;7.024;2022-07-23T08:01:23;12.13;;;5.77;;
72127;SDS011;60000;51.030;7.024;2022-07-23T08:03:48;14.57;;;6.10;;
72127;SDS011;60000;51.030;7.024;2022-07-23T08:06:14;10.63;;;5.63;;
72127;SDS011;60000;51.030;7.024;2022-07-23T08:08:39;13.37;;;5.17;;
72127;SDS011;60000;51.030;7.024;2022-07-23T08:11:04;10.48;;;5.07;;
72127;SDS011;60000;51.030;7.024;2022-07-23T08:13:30;12.43;;;5.03;;
72127;SDS011;60000;51.030;7.024;2022-07-23T08:15:55;11.23;;;5.13;;
72127;SDS011;60000;51.030;7.024;2022-07-23T08:18:21;13.17;;;5.83;;
72127;SDS011;60000;51.030;7.024;2022-07-23T08:20:46;13.17;;;5.20;;
72127;SDS011;60000;51.030;7.024;2022-07-23T08:23:11;12.50;;;4.87;;
72127;SDS011;60000;51.030;7.024;2022-07-23T08:25:38;11.27;;;5.28;;
72127;SDS011;60000;51.030;7.024;2022-07-23T08:28:09;11.00;;;5.03;;
72127;SDS011;60000;51.030;7.024;2022-07-23T08:30:36;9.93;;;5.38;;
72127;SDS011;60000;51.030;7.024;2022-07-23T08:33:04;8.57;;;3.70;;
72127;SDS011;60000;51.030;7.024;2022-07-23T08:35:46;10.82;;;4.20;;
72127;SDS011;60000;51.030;7.024;2022-07-23T08:38:14;10.30;;;4.90;;
72127;SDS011;60000;51.030;7.024;2022-07-23T08:40:41;10.70;;;5.03;;
72127;SDS011;60000;51.030;7.024;2022-07-23T08:43:10;9.95;;;4.88;;
72127;SDS011;60000;51.030;7.024;2022-07-23T08:45:41;7.87;;;3.70;;
72127;SDS011;60000;51.030;7.024;2022-07-23T08:48:10;10.48;;;4.70;;
72127;SDS011;60000;51.030;7.024;2022-07-23T08:50:45;13.65;;;4.57;;
72127;SDS011;60000;51.030;7.024;2022-07-23T08:53:14;10.60;;;4.47;;
72127;SDS011;60000;51.030;7.024;2022-07-23T08:55:43;10.45;;;4.75;;
72127;SDS011;60000;51.030;7.024;2022-07-23T08:58:12;9.40;;;4.50;;
72127;SDS011;60000;51.030;7.024;2022-07-23T09:00:38;8.20;;;4.07;;
72127;SDS011;60000;51.030;7.024;2022-07-23T09:03:03;10.65;;;4.70;;
72127;SDS011;60000;51.030;7.024;2022-07-23T09:05:29;9.80;;;4.60;;
72127;SDS011;60000;51.030;7.024;2022-07-23T09:15:48;10.88;;;4.85;;
72127;SDS011;60000;51.030;7.024;2022-07-23T09:18:15;10.50;;;5.63;;
72127;SDS011;60000;51.030;7.024;2022-07-23T09:20:41;10.98;;;5.05;;
72127;SDS011;60000;51.030;7.024;2022-07-23T09:23:06;13.07;;;5.10;;
72127;SDS011;60000;51.030;7.024;2022-07-23T09:25:32;10.50;;;5.40;;
72127;SDS011;60000;51.030;7.024;2022-07-23T09:27:58;10.50;;;5.23;;
72127;SDS011;60000;51.030;7.024;2022-07-23T09:30:28;9.82;;;5.00;;
72127;SDS011;60000;51.030;7.024;2022-07-23T09:35:49;9.32;;;4.82;;
72127;SDS011;60000;51.030;7.024;2022-07-23T09:38:19;10.88;;;5.38;;
72127;SDS011;60000;51.030;7.024;2022-07-23T09:40:46;11.15;;;4.80;;
72127;SDS011;60000;51.030;7.024;2022-07-23T09:43:12;8.75;;;5.07;;
72127;SDS011;60000;51.030;7.024;2022-07-23T09:45:50;8.43;;;4.50;;
72127;SDS011;60000;51.030;7.024;2022-07-23T09:48:16;10.57;;;4.70;;
72127;SDS011;60000;51.030;7.024;2022-07-23T09:50:42;10.57;;;5.03;;
72127;SDS011;60000;51.030;7.024;2022-07-23T09:53:11;9.35;;;4.65;;
72127;SDS011;60000;51.030;7.024;2022-07-23T09:55:49;8.85;;;5.00;;
72127;SDS011;60000;51.030;7.024;2022-07-23T09:58:17;10.82;;;5.05;;
72127;SDS011;60000;51.030;7.024;2022-07-23T10:00:46;9.53;;;5.20;;
72127;SDS011;60000;51.030;7.024;2022-07-23T10:03:14;9.73;;;4.60;;
72127;SDS011;60000;51.030;7.024;2022-07-23T10:05:39;10.32;;;5.60;;
72127;SDS011;60000;51.030;7.024;2022-07-23T10:08:08;10.87;;;5.13;;
72127;SDS011;60000;51.030;7.024;2022-07-23T10:10:37;9.68;;;4.95;;
72127;SDS011;60000;51.030;7.024;2022-07-23T10:13:04;9.13;;;4.70;;
72127;SDS011;60000;51.030;7.024;2022-07-23T10:15:48;9.82;;;4.40;;
72127;SDS011;60000;51.030;7.024;2022-07-23T10:18:15;8.88;;;4.57;;
72127;SDS011;60000;51.030;7.024;2022-07-23T10:20:41;9.60;;;5.13;;
72127;SDS011;60000;51.030;7.024;2022-07-23T10:23:24;10.50;;;5.28;;
72127;SDS011;60000;51.030;7.024;2022-07-23T10:25:55;9.35;;;4.80;;
72127;SDS011;60000;51.030;7.024;2022-07-23T10:31:25;7.97;;;4.07;;
72127;SDS011;60000;51.030;7.024;2022-07-23T10:36:58;8.55;;;3.58;;
72127;SDS011;60000;51.030;7.024;2022-07-23T10:39:32;6.75;;;3.78;;
72127;SDS011;60000;51.030;7.024;2022-07-23T10:44:38;7.77;;;4.17;;
72127;SDS011;60000;51.030;7.024;2022-07-23T10:47:05;8.52;;;4.07;;
72127;SDS011;60000;51.030;7.024;2022-07-23T10:49:34;9.30;;;4.43;;
72127;SDS011;60000;51.030;7.024;2022-07-23T10:52:20;6.50;;;3.30;;
72127;SDS011;60000;51.030;7.024;2022-07-23T10:57:17;9.83;;;4.60;;
72127;SDS011;60000;51.030;7.024;2022-07-23T11:02:26;7.65;;;3.45;;
72127;SDS011;60000;51.030;7.024;2022-07-23T11:04:54;8.25;;;3.95;;
72127;SDS011;60000;51.030;7.024;2022-07-23T11:07:23;7.35;;;3.78;;
72127;SDS011;60000;51.030;7.024;2022-07-23T11:09:49;5.90;;;3.00;;
72127;SDS011;60000;51.030;7.024;2022-07-23T11:17:23;7.45;;;3.80;;
72127;SDS011;60000;51.030;7.024;2022-07-23T11:25:12;9.18;;;3.22;;
72127;SDS011;60000;51.030;7.024;2022-07-23T11:27:43;7.65;;;3.95;;
72127;SDS011;60000;51.030;7.024;2022-07-23T11:30:11;7.65;;;4.43;;
72127;SDS011;60000;51.030;7.024;2022-07-23T11:35:41;7.10;;;3.77;;
72127;SDS011;60000;51.030;7.024;2022-07-23T11:38:16;7.25;;;3.15;;
72127;SDS011;60000;51.030;7.024;2022-07-23T11:40:44;6.85;;;3.00;;
72127;SDS011;60000;51.030;7.024;2022-07-23T11:43:11;7.28;;;3.33;;
72127;SDS011;60000;51.030;7.024;2022-07-23T11:45:39;7.03;;;3.55;;
72127;SDS011;60000;51.030;7.024;2022-07-23T11:48:19;7.73;;;3.80;;
72127;SDS011;60000;51.030;7.024;2022-07-23T11:50:46;6.95;;;3.22;;
72127;SDS011;60000;51.030;7.024;2022-07-23T11:53:12;7.27;;;3.47;;
72127;SDS011;60000;51.030;7.024;2022-07-23T11:55:37;5.63;;;2.97;;
72127;SDS011;60000;51.030;7.024;2022-07-23T11:58:03;8.97;;;3.40;;
72127;SDS011;60000;51.030;7.024;2022-07-23T12:00:29;6.70;;;3.70;;
72127;SDS011;60000;51.030;7.024;2022-07-23T12:03:00;6.60;;;3.95;;
72127;SDS011;60000;51.030;7.024;2022-07-23T12:05:28;8.03;;;3.90;;
72127;SDS011;60000;51.030;7.024;2022-07-23T12:07:56;8.02;;;4.45;;
72127;SDS011;60000;51.030;7.024;2022-07-23T12:10:26;7.82;;;4.20;;
72127;SDS011;60000;51.030;7.024;2022-07-23T12:12:58;7.97;;;4.20;;
72127;SDS011;60000;51.030;7.024;2022-07-23T12:15:32;8.98;;;3.80;;
72127;SDS011;60000;51.030;7.024;2022-07-23T12:18:05;6.70;;;3.60;;
72127;SDS011;60000;51.030;7.024;2022-07-23T12:20:34;7.68;;;3.85;;
72127;SDS011;60000;51.030;7.024;2022-07-23T12:23:02;8.20;;;3.55;;
72127;SDS011;60000;51.030;7.024;2022-07-23T12:25:31;6.95;;;3.72;;
72127;SDS011;60000;51.030;7.024;2022-07-23T12:28:17;7.50;;;3.40;;
72127;SDS011;60000;51.030;7.024;2022-07-23T12:30:53;7.63;;;3.97;;
72127;SDS011;60000;51.030;7.024;2022-07-23T12:35:49;8.57;;;4.00;;
72127;SDS011;60000;51.030;7.024;2022-07-23T12:38:16;8.15;;;3.80;;
72127;SDS011;60000;51.030;7.024;2022-07-23T12:50:50;7.05;;;3.15;;
72127;SDS011;60000;51.030;7.024;2022-07-23T12:53:28;7.37;;;3.17;;
72127;SDS011;60000;51.030;7.024;2022-07-23T12:55:59;6.90;;;3.30;;
72127;SDS011;60000;51.030;7.024;2022-07-23T12:58:39;7.95;;;3.95;;
72127;SDS011;60000;51.030;7.024;2022-07-23T13:04:03;11.75;;;4.55;;
72127;SDS011;60000;51.030;7.024;2022-07-23T13:06:31;7.17;;;3.80;;
72127;SDS011;60000;51.030;7.024;2022-07-23T13:08:58;8.02;;;4.00;;
72127;SDS011;60000;51.030;7.024;2022-07-23T13:11:24;7.50;;;3.22;;
72127;SDS011;60000;51.030;7.024;2022-07-23T13:13:49;6.60;;;3.30;;
72127;SDS011;60000;51.030;7.024;2022-07-23T13:16:15;7.95;;;3.70;;
72127;SDS011;60000;51.030;7.024;2022-07-23T13:18:40;7.33;;;3.23;;
72127;SDS011;60000;51.030;7.024;2022-07-23T13:21:07;8.57;;;3.45;;
72127;SDS011;60000;51.030;7.024;2022-07-23T13:23:33;9.45;;;5.32;;
72127;SDS011;60000;51.030;7.024;2022-07-23T13:25:58;15.07;;;10.77;;
72127;SDS011;60000;51.030;7.024;2022-07-23T13:28:24;6.43;;;3.00;;
72127;SDS011;60000;51.030;7.024;2022-07-23T13:30:50;6.35;;;3.25;;
72127;SDS011;60000;51.030;7.024;2022-07-23T13:33:20;7.07;;;3.60;;
72127;SDS011;60000;51.030;7.024;2022-07-23T13:35:47;6.50;;;3.30;;
72127;SDS011;60000;51.030;7.024;2022-07-23T13:38:13;8.15;;;2.90;;
72127;SDS011;60000;51.030;7.024;2022-07-23T13:40:39;7.10;;;2.70;;
72127;SDS011;60000;51.030;7.024;2022-07-23T13:43:07;8.23;;;2.50;;
72127;SDS011;60000;51.030;7.024;2022-07-23T13:45:34;7.25;;;2.45;;
72127;SDS011;60000;51.030;7.024;2022-07-23T13:48:00;6.30;;;3.00;;
72127;SDS011;60000;51.030;7.024;2022-07-23T13:50:26;8.68;;;4.05;;
72127;SDS011;60000;51.030;7.024;2022-07-23T13:52:51;6.10;;;2.90;;
72127;SDS011;60000;51.030;7.024;2022-07-23T13:55:17;5.97;;;2.27;;
72127;SDS011;60000;51.030;7.024;2022-07-23T13:57:42;7.10;;;2.67;;
72127;SDS011;60000;51.030;7.024;2022-07-23T14:00:08;6.67;;;2.40;;
72127;SDS011;60000;51.030;7.024;2022-07-23T14:02:36;7.43;;;2.50;;
72127;SDS011;60000;51.030;7.024;2022-07-23T14:05:04;8.02;;;2.50;;
72127;SDS011;60000;51.030;7.024;2022-07-23T14:07:30;5.15;;;2.38;;
72127;SDS011;60000;51.030;7.024;2022-07-23T14:09:56;6.17;;;2.40;;
72127;SDS011;60000;51.030;7.024;2022-07-23T14:15:28;7.38;;;2.63;;
72127;SDS011;60000;51.030;7.024;2022-07-23T14:17:54;7.53;;;2.80;;
72127;SDS011;60000;51.030;7.024;2022-07-23T14:20:20;6.33;;;2.60;;
72127;SDS011;60000;51.030;7.024;2022-07-23T14:22:46;6.45;;;2.50;;
72127;SDS011;60000;51.030;7.024;2022-07-23T14:25:12;7.55;;;3.47;;
72127;SDS011;60000;51.030;7.024;2022-07-23T14:27:38;10.87;;;4.70;;
72127;SDS011;60000;51.030;7.024;2022-07-23T14:30:04;7.18;;;3.22;;
72127;SDS011;60000;51.030;7.024;2022-07-23T14:32:32;5.77;;;2.60;;
72127;SDS011;60000;51.030;7.024;2022-07-23T14:34:57;5.05;;;2.17;;
72127;SDS011;60000;51.030;7.024;2022-07-23T14:37:22;6.70;;;2.50;;
72127;SDS011;60000;51.030;7.024;2022-07-23T14:39:49;6.07;;;2.55;;
72127;SDS011;60000;51.030;7.024;2022-07-23T14:42:18;5.33;;;2.17;;
72127;SDS011;60000;51.030;7.024;2022-07-23T14:44:43;5.47;;;2.40;;
72127;SDS011;60000;51.030;7.024;2022-07-23T14:47:09;8.83;;;2.80;;
72127;SDS011;60000;51.030;7.024;2022-07-23T14:49:35;9.20;;;3.20;;
72127;SDS011;60000;51.030;7.024;2022-07-23T14:52:01;7.47;;;3.70;;
72127;SDS011;60000;51.030;7.024;2022-07-23T14:54:27;6.70;;;3.20;;
72127;SDS011;60000;51.030;7.024;2022-07-23T14:56:56;7.73;;;3.77;;
72127;SDS011;60000;51.030;7.024;2022-07-23T14:59:23;8.23;;;4.43;;
72127;SDS011;60000;51.030;7.024;2022-07-23T15:01:49;7.68;;;3.83;;
72127;SDS011;60000;51.030;7.024;2022-07-23T15:04:14;7.47;;;2.40;;
72127;SDS011;60000;51.030;7.024;2022-07-23T15:06:40;6.45;;;2.40;;
72127;SDS011;60000;51.030;7.024;2022-07-23T15:09:05;5.13;;;2.00;;
72127;SDS011;60000;51.030;7.024;2022-07-23T15:11:31;5.83;;;2.47;;
72127;SDS011;60000;51.030;7.024;2022-07-23T15:13:59;6.18;;;2.70;;
72127;SDS011;60000;51.030;7.024;2022-07-23T15:16:25;5.32;;;2.10;;
72127;SDS011;60000;51.030;7.024;2022-07-23T15:18:51;18.00;;;9.82;;
72127;SDS011;60000;51.030;7.024;2022-07-23T15:21:16;15.67;;;8.70;;
72127;SDS011;60000;51.030;7.024;2022-07-23T15:23:42;6.93;;;3.57;;
72127;SDS011;60000;51.030;7.024;2022-07-23T15:26:07;8.10;;;2.77;;
72127;SDS011;60000;51.030;7.024;2022-07-23T15:28:34;7.65;;;2.75;;
72127;SDS011;60000;51.030;7.024;2022-07-23T15:31:00;6.87;;;2.67;;